createdAt,value
2019-05-10T00:00:11.876Z,99366.68
2019-05-10T00:02:54.700Z,99372.36
2019-05-10T00:05:37.236Z,99378.50
2019-05-10T00:08:19.880Z,99376.05
2019-05-10T00:10:46.061Z,99374.53
2019-05-10T00:13:24.155Z,99373.68
2019-05-10T00:15:48.624Z,99378.28
2019-05-10T00:18:13.216Z,99381.19
2019-05-10T00:20:37.717Z,99383.10
2019-05-10T00:23:02.170Z,99380.86
2019-05-10T00:25:26.642Z,99382.69
2019-05-10T00:27:51.149Z,99377.35
2019-05-10T00:30:15.832Z,99373.91
2019-05-10T00:32:40.272Z,99384.13
2019-05-10T00:35:06.468Z,99332.34
2019-05-10T00:37:30.893Z,99374.56
2019-05-10T00:39:55.431Z,99379.41
2019-05-10T00:42:20.525Z,99385.17
2019-05-10T00:44:45.117Z,99382.68
2019-05-10T00:47:09.720Z,99385.60
2019-05-10T00:49:34.174Z,99386.69
2019-05-10T00:51:58.637Z,99386.27
2019-05-10T00:54:23.107Z,99384.81
2019-05-10T00:56:47.704Z,99386.99
2019-05-10T00:59:12.152Z,99387.20
2019-05-10T01:01:36.697Z,99392.83
2019-05-10T01:04:01.136Z,99390.19
2019-05-10T01:06:25.610Z,99396.00
2019-05-10T01:08:50.070Z,99398.58
2019-05-10T01:11:14.606Z,99392.79
2019-05-10T01:13:39.139Z,99407.71
2019-05-10T01:16:03.679Z,99409.33
2019-05-10T01:18:28.184Z,99401.05
2019-05-10T01:20:52.661Z,99401.77
2019-05-10T01:23:17.185Z,99401.69
2019-05-10T01:25:41.626Z,99407.12
2019-05-10T01:28:06.381Z,99407.27
2019-05-10T01:30:30.813Z,99408.42
2019-05-10T01:32:55.417Z,99412.15
2019-05-10T01:35:19.931Z,99413.76
2019-05-10T01:37:44.413Z,99416.19
2019-05-10T01:40:09.101Z,99421.91
2019-05-10T01:42:33.597Z,99424.58
2019-05-10T01:44:58.054Z,99430.44
2019-05-10T01:47:22.560Z,99430.73
2019-05-10T01:49:47.011Z,99431.31
2019-05-10T01:52:11.932Z,99431.28
2019-05-10T01:54:36.522Z,99428.84
2019-05-10T01:57:00.996Z,99436.28
2019-05-10T01:59:25.584Z,99438.14
2019-05-10T02:01:50.127Z,99435.75
2019-05-10T02:04:17.613Z,99439.31
2019-05-10T02:06:40.805Z,99441.48
2019-05-10T02:09:07.738Z,99443.15
2019-05-10T02:11:32.252Z,99446.22
2019-05-10T02:13:56.736Z,99447.34
2019-05-10T02:16:21.176Z,99452.93
2019-05-10T02:18:45.716Z,99445.94
2019-05-10T02:21:10.172Z,99448.97
2019-05-10T02:23:34.653Z,99454.30
2019-05-10T02:26:08.852Z,99450.27
2019-05-10T02:28:25.417Z,99457.64
2019-05-10T02:30:49.860Z,99448.31
2019-05-10T02:33:14.484Z,99459.48
2019-05-10T02:35:39.223Z,99465.56
2019-05-10T02:38:03.911Z,99460.41
2019-05-10T02:40:28.431Z,99456.38
2019-05-10T02:42:52.937Z,99461.67
2019-05-10T02:45:17.526Z,99464.19
2019-05-10T02:47:42.186Z,99463.45
2019-05-10T02:50:08.528Z,99471.25
2019-05-10T02:52:33.139Z,99473.53
2019-05-10T02:54:57.927Z,99473.09
2019-05-10T02:57:22.757Z,99482.80
2019-05-10T02:59:48.804Z,99475.69
2019-05-10T03:02:14.360Z,99477.80
2019-05-10T03:04:39.002Z,99484.22
2019-05-10T03:07:05.829Z,99488.72
2019-05-10T03:09:32.003Z,99489.55
2019-05-10T03:11:59.482Z,99495.77
2019-05-10T03:14:26.617Z,99498.73
2019-05-10T03:16:51.890Z,99497.37
2019-05-10T03:19:21.052Z,99499.88
2019-05-10T03:21:47.979Z,99507.35
2019-05-10T03:24:12.533Z,99507.35
2019-05-10T03:26:50.319Z,99511.16
2019-05-10T03:29:05.929Z,99511.36
2019-05-10T03:31:30.525Z,99514.61
2019-05-10T03:33:57.537Z,99512.72
2019-05-10T03:36:21.607Z,99510.36
2019-05-10T03:38:47.039Z,99515.61
2019-05-10T03:41:11.905Z,99521.52
2019-05-10T03:43:36.433Z,99524.53
2019-05-10T03:46:00.934Z,99525.38
2019-05-10T03:48:25.365Z,99532.57
2019-05-10T03:50:49.898Z,99523.50
2019-05-10T03:53:14.466Z,99529.68
2019-05-10T03:55:38.939Z,99529.39
2019-05-10T03:58:03.547Z,99536.92
2019-05-10T04:00:28.080Z,99542.98
2019-05-10T04:02:52.612Z,99538.48
2019-05-10T04:05:17.225Z,99533.51
2019-05-10T04:07:41.723Z,99537.43
2019-05-10T04:10:09.382Z,99541.89
2019-05-10T04:12:33.826Z,99541.22
2019-05-10T04:14:58.489Z,99544.41
2019-05-10T04:17:23.008Z,99554.15
2019-05-10T04:19:47.542Z,99555.46
2019-05-10T04:22:12.239Z,99559.34
2019-05-10T04:24:36.838Z,99561.48
2019-05-10T04:27:01.249Z,99562.78
2019-05-10T04:29:25.722Z,99568.85
2019-05-10T04:31:50.202Z,99564.73
2019-05-10T04:34:14.800Z,99567.50
2019-05-10T04:36:39.311Z,99580.30
2019-05-10T04:39:05.318Z,99567.88
2019-05-10T04:41:29.822Z,99579.11
2019-05-10T04:43:54.285Z,99586.03
2019-05-10T04:46:18.759Z,99583.41
2019-05-10T04:48:43.217Z,99594.84
2019-05-10T04:51:07.910Z,99594.80
2019-05-10T04:53:32.312Z,99597.50
2019-05-10T04:55:56.895Z,99598.45
2019-05-10T04:58:21.371Z,99594.34
2019-05-10T05:00:45.811Z,99602.53
2019-05-10T05:03:10.440Z,99601.69
2019-05-10T05:05:34.938Z,99609.20
2019-05-10T05:07:59.417Z,99606.23
2019-05-10T05:10:23.880Z,99605.83
2019-05-10T05:12:48.391Z,99605.22
2019-05-10T05:15:13.224Z,99607.92
2019-05-10T05:17:37.748Z,99581.45
2019-05-10T05:20:02.198Z,99612.61
2019-05-10T05:22:26.671Z,99613.58
2019-05-10T05:24:55.178Z,99616.48
2019-05-10T05:27:17.304Z,99622.64
2019-05-10T05:29:41.806Z,99620.19
2019-05-10T05:32:06.372Z,99626.47
2019-05-10T05:34:30.828Z,99627.47
2019-05-10T05:36:55.500Z,99634.39
2019-05-10T05:39:20.012Z,99633.27
2019-05-10T05:41:49.051Z,99631.52
2019-05-10T05:44:10.783Z,99643.18
2019-05-10T05:46:35.256Z,99642.23
2019-05-10T05:48:59.812Z,99646.31
2019-05-10T05:51:24.354Z,99647.03
2019-05-10T05:53:48.886Z,99644.83
2019-05-10T05:56:14.667Z,99644.61
2019-05-10T05:58:44.400Z,99655.69
2019-05-10T06:01:05.687Z,99654.09
2019-05-10T06:03:30.185Z,99651.19
2019-05-10T06:05:54.611Z,99658.11
2019-05-10T06:08:24.698Z,99654.20
2019-05-10T06:10:56.182Z,99658.98
2019-05-10T06:13:11.560Z,99654.05
2019-05-10T06:15:36.139Z,99661.13
2019-05-10T06:18:03.539Z,99658.52
2019-05-10T06:20:26.889Z,99663.28
2019-05-10T06:23:05.796Z,99663.56
2019-05-10T06:25:17.565Z,99668.36
2019-05-10T06:27:43.209Z,99666.88
2019-05-10T06:30:08.314Z,99669.98
2019-05-10T06:32:33.110Z,99670.05
2019-05-10T06:34:58.209Z,99681.48
2019-05-10T06:37:22.659Z,99672.48
2019-05-10T06:39:47.136Z,99682.41
2019-05-10T06:42:11.655Z,99678.23
2019-05-10T06:44:36.223Z,99684.13
2019-05-10T06:47:08.024Z,99682.53
2019-05-10T06:49:28.396Z,99686.44
2019-05-10T06:51:52.851Z,99687.84
2019-05-10T06:54:17.402Z,99694.74
2019-05-10T06:56:41.857Z,99700.86
2019-05-10T06:59:13.642Z,99701.78
2019-05-10T07:01:38.335Z,99694.51
2019-05-10T07:03:58.795Z,99696.90
2019-05-10T07:06:23.354Z,99695.91
2019-05-10T07:08:51.959Z,99695.09
2019-05-10T07:11:14.007Z,99695.52
2019-05-10T07:13:40.486Z,99693.49
2019-05-10T07:16:04.937Z,99691.53
2019-05-10T07:18:29.469Z,99695.13
2019-05-10T07:20:53.994Z,99696.87
2019-05-10T07:23:18.471Z,99693.98
2019-05-10T07:25:44.554Z,99696.07
2019-05-10T07:28:15.160Z,99698.17
2019-05-10T07:30:41.077Z,99702.98
2019-05-10T07:33:03.772Z,99698.17
2019-05-10T07:35:30.901Z,99708.50
2019-05-10T07:37:54.455Z,99700.09
2019-05-10T07:40:19.023Z,99698.48
2019-05-10T07:42:45.551Z,99702.80
2019-05-10T07:45:10.337Z,99701.32
2019-05-10T07:47:34.827Z,99712.34
2019-05-10T07:50:03.841Z,99717.11
2019-05-10T07:52:25.510Z,99719.96
2019-05-10T07:54:49.977Z,99713.88
2019-05-10T07:57:18.636Z,99725.23
2019-05-10T07:59:49.937Z,99724.66
2019-05-10T08:02:12.818Z,99724.67
2019-05-10T08:04:33.706Z,99726.87
2019-05-10T08:06:59.703Z,99733.55
2019-05-10T08:09:24.279Z,99734.16
2019-05-10T08:11:54.027Z,99723.34
2019-05-10T08:14:14.930Z,99720.63
2019-05-10T08:16:39.411Z,99733.72
2019-05-10T08:19:03.938Z,99742.57
2019-05-10T08:21:28.451Z,99733.31
2019-05-10T08:23:54.100Z,99740.73
2019-05-10T08:26:24.130Z,99766.33
2019-05-10T08:28:44.910Z,99747.80
2019-05-10T08:31:12.167Z,99748.64
2019-05-10T08:33:35.832Z,99748.15
2019-05-10T08:36:02.912Z,99744.51
2019-05-10T08:38:26.577Z,99748.73
2019-05-10T08:40:52.707Z,99748.20
2019-05-10T08:43:17.561Z,99750.81
2019-05-10T08:45:45.030Z,99762.22
2019-05-10T08:48:08.688Z,99756.89
2019-05-10T08:50:45.675Z,99757.25
2019-05-10T08:53:02.360Z,99764.73
2019-05-10T08:55:25.652Z,99754.12
2019-05-10T08:57:52.354Z,99771.42
2019-05-10T09:00:17.024Z,99763.31
2019-05-10T09:02:42.697Z,99771.55
2019-05-10T09:05:07.534Z,99768.36
2019-05-10T09:07:34.957Z,99769.53
2019-05-10T09:09:58.239Z,99780.97
2019-05-10T09:12:23.179Z,99779.98
2019-05-10T09:14:48.876Z,99781.50
2019-05-10T09:17:14.724Z,99785.92
2019-05-10T09:19:41.650Z,99782.83
2019-05-10T09:22:05.788Z,99800.30
2019-05-10T09:24:34.545Z,99804.62
2019-05-10T09:26:57.119Z,99791.77
2019-05-10T09:29:22.033Z,99798.96
2019-05-10T09:31:50.683Z,99798.70
2019-05-10T09:34:12.821Z,99783.77
2019-05-10T09:36:37.260Z,99803.74
2019-05-10T09:39:03.426Z,99796.70
2019-05-10T09:41:33.817Z,99793.11
2019-05-10T09:43:54.153Z,99808.09
2019-05-10T09:46:18.738Z,99815.00
2019-05-10T09:48:45.052Z,99843.21
2019-05-10T09:51:09.438Z,99841.83
2019-05-10T09:53:33.989Z,99833.28
2019-05-10T09:56:02.590Z,99829.11
2019-05-10T09:58:24.817Z,99834.95
2019-05-10T10:00:49.256Z,99833.13
2019-05-10T10:03:13.750Z,99835.58
2019-05-10T10:05:40.331Z,99835.64
2019-05-10T10:08:08.986Z,99838.38
2019-05-10T10:10:32.578Z,99850.91
2019-05-10T10:12:58.297Z,99845.50
2019-05-10T10:15:32.072Z,99848.59
2019-05-10T10:17:49.684Z,99849.05
2019-05-10T10:20:14.259Z,99858.89
2019-05-10T10:22:43.458Z,99848.05
2019-05-10T10:25:09.354Z,99858.41
2019-05-10T10:27:34.780Z,99855.58
2019-05-10T10:30:06.650Z,99853.56
2019-05-10T10:32:31.380Z,99859.48
2019-05-10T10:34:57.663Z,99855.85
2019-05-10T10:37:25.693Z,99864.28
2019-05-10T10:39:47.825Z,99855.94
2019-05-10T10:42:13.333Z,99865.13
2019-05-10T10:44:37.927Z,99876.21
2019-05-10T10:47:02.364Z,99854.90
2019-05-10T10:49:30.795Z,99838.14
2019-05-10T10:51:53.104Z,99873.57
2019-05-10T10:54:22.405Z,99856.08
2019-05-10T10:56:44.027Z,99864.24
2019-05-10T10:59:08.537Z,99868.86
2019-05-10T11:01:46.229Z,99859.88
2019-05-10T11:04:03.448Z,99868.16
2019-05-10T11:06:25.298Z,99875.17
2019-05-10T11:08:51.843Z,99878.27
2019-05-10T11:11:16.139Z,99884.53
2019-05-10T11:13:45.385Z,99882.17
2019-05-10T11:16:14.070Z,99890.39
2019-05-10T11:18:33.013Z,99890.98
2019-05-10T11:20:57.495Z,99899.12
2019-05-10T11:23:24.498Z,99902.34
2019-05-10T11:25:54.838Z,99917.22
2019-05-10T11:28:14.317Z,99940.58
2019-05-10T11:30:38.784Z,99940.34
2019-05-10T11:33:03.266Z,99953.93
2019-05-10T11:35:31.434Z,99955.37
2019-05-10T11:37:54.014Z,99945.48
2019-05-10T11:40:30.472Z,99967.78
2019-05-10T11:42:47.532Z,99954.10
2019-05-10T11:45:11.498Z,99962.87
2019-05-10T11:47:35.973Z,99968.14
2019-05-10T11:50:06.054Z,99969.19
2019-05-10T11:52:29.220Z,99970.42
2019-05-10T11:54:52.976Z,99968.37
2019-05-10T11:57:17.498Z,99975.84
2019-05-10T11:59:41.946Z,99975.84
2019-05-10T12:02:10.337Z,99975.56
2019-05-10T12:07:01.792Z,99991.33
2019-05-10T12:09:25.928Z,99994.14
2019-05-10T12:11:52.165Z,99995.41
2019-05-10T12:14:16.666Z,100001.08
2019-05-10T12:16:42.161Z,100003.57
2019-05-10T12:19:15.827Z,100012.69
2019-05-10T12:21:33.394Z,100018.58
2019-05-10T12:24:10.506Z,100026.52
2019-05-10T12:26:06.159Z,99978.82
2019-05-10T12:28:51.176Z,100034.98
2019-05-10T12:31:17.191Z,100040.55
2019-05-10T12:33:45.208Z,100042.30
2019-05-10T12:36:13.487Z,100039.17
2019-05-10T12:38:35.895Z,100037.73
2019-05-10T12:41:01.373Z,100039.02
2019-05-10T12:43:26.300Z,100038.71
2019-05-10T12:45:51.781Z,100049.55
2019-05-10T12:48:16.641Z,100051.59
2019-05-10T12:50:44.027Z,100048.02
2019-05-10T12:53:13.904Z,100060.77
2019-05-10T12:55:33.601Z,100072.33
2019-05-10T12:57:58.189Z,100061.80
2019-05-10T13:00:22.900Z,100072.67
2019-05-10T13:02:51.091Z,100073.89
2019-05-10T13:05:15.686Z,100077.05
2019-05-10T13:07:39.880Z,100078.63
2019-05-10T13:10:07.927Z,100083.45
2019-05-10T13:12:36.767Z,100083.08
2019-05-10T13:14:58.274Z,100083.83
2019-05-10T13:17:22.750Z,100079.28
2019-05-10T13:19:47.361Z,100079.61
2019-05-10T13:22:11.903Z,100087.52
2019-05-10T13:24:36.436Z,100081.60
2019-05-10T13:27:03.556Z,100078.84
2019-05-10T13:29:27.104Z,100083.59
2019-05-10T13:31:51.618Z,100086.84
2019-05-10T13:34:16.084Z,100091.72
2019-05-10T13:36:40.559Z,100093.20
2019-05-10T13:39:06.634Z,100090.88
2019-05-10T13:41:31.123Z,100090.34
2019-05-10T13:43:58.990Z,100088.84
2019-05-10T13:46:21.941Z,100096.48
2019-05-10T13:48:46.395Z,100092.73
2019-05-10T13:51:10.860Z,100100.95
2019-05-10T13:53:35.413Z,100100.97
2019-05-10T13:55:59.900Z,100110.27
2019-05-10T13:58:24.401Z,100109.04
2019-05-10T14:00:48.927Z,100110.90
2019-05-10T14:03:13.700Z,100118.80
2019-05-10T14:05:40.334Z,100120.97
2019-05-10T14:08:04.568Z,100121.17
2019-05-10T14:10:29.158Z,100122.47
2019-05-10T14:12:56.105Z,100111.13
2019-05-10T14:15:19.982Z,100123.13
2019-05-10T14:17:44.457Z,100119.23
2019-05-10T14:20:19.441Z,100126.77
2019-05-10T14:22:36.038Z,100125.81
2019-05-10T14:25:00.469Z,100129.40
2019-05-10T14:27:29.975Z,100137.11
2019-05-10T14:29:51.198Z,100135.90
2019-05-10T14:32:15.670Z,100132.17
2019-05-10T14:34:44.209Z,100134.37
2019-05-10T14:37:06.459Z,100146.75
2019-05-10T14:39:30.939Z,100146.94
2019-05-10T14:41:55.421Z,100143.73
2019-05-10T14:44:19.954Z,100140.58
2019-05-10T14:46:44.391Z,100157.21
2019-05-10T14:49:10.088Z,100154.28
2019-05-10T14:51:44.332Z,100158.39
2019-05-10T14:54:06.806Z,100152.44
2019-05-10T14:56:27.430Z,100163.58
2019-05-10T14:58:51.993Z,100172.23
2019-05-10T15:01:16.499Z,100169.59
2019-05-10T15:03:45.288Z,100179.47
2019-05-10T15:06:07.165Z,100182.97
2019-05-10T15:08:31.660Z,100185.17
2019-05-10T15:10:57.273Z,100183.36
2019-05-10T15:13:25.504Z,100192.30
2019-05-10T15:15:48.220Z,100189.39
2019-05-10T15:18:12.838Z,100197.70
2019-05-10T15:20:37.358Z,100191.95
2019-05-10T15:23:01.851Z,100191.26
2019-05-10T15:25:26.495Z,100194.69
2019-05-10T15:27:54.762Z,100208.98
2019-05-10T15:30:17.521Z,100207.08
2019-05-10T15:32:42.053Z,100208.72
2019-05-10T15:35:08.702Z,100210.28
2019-05-10T15:37:33.571Z,100217.64
2019-05-10T15:40:00.582Z,100219.63
2019-05-10T15:42:24.329Z,100221.50
2019-05-10T15:44:48.804Z,100214.64
2019-05-10T15:47:19.765Z,100222.38
2019-05-10T15:49:39.481Z,100229.28
2019-05-10T15:52:16.827Z,100220.83
2019-05-10T15:54:30.339Z,100224.42
2019-05-10T15:56:55.757Z,100229.97
2019-05-10T15:59:21.314Z,100234.30
2019-05-10T16:01:46.201Z,100225.70
2019-05-10T16:04:10.863Z,100227.16
2019-05-10T16:06:37.667Z,100227.80
2019-05-10T16:09:03.529Z,100232.38
2019-05-10T16:11:27.789Z,100236.23
2019-05-10T16:13:54.657Z,100240.63
2019-05-10T16:16:18.595Z,100239.61
2019-05-10T16:18:42.985Z,100239.25
2019-05-10T16:21:09.744Z,100250.68
2019-05-10T16:23:33.659Z,100249.31
2019-05-10T16:25:58.126Z,100250.55
2019-05-10T16:28:22.956Z,100245.20
2019-05-10T16:30:47.811Z,100248.89
2019-05-10T16:33:15.594Z,100257.78
2019-05-10T16:35:39.319Z,100252.91
2019-05-10T16:38:03.869Z,100253.53
2019-05-10T16:40:28.381Z,100253.06
2019-05-10T16:42:52.984Z,100261.42
2019-05-10T16:45:17.673Z,100260.53
2019-05-10T16:47:44.228Z,100262.34
2019-05-10T16:50:10.067Z,100263.09
2019-05-10T16:52:34.691Z,100265.98
2019-05-10T16:55:03.665Z,100267.09
2019-05-10T16:57:25.698Z,100267.80
2019-05-10T16:59:50.505Z,100271.49
2019-05-10T17:02:15.153Z,100272.74
2019-05-10T17:04:39.919Z,100274.30
2019-05-10T17:07:04.511Z,100274.30
2019-05-10T17:09:29.343Z,100265.77
2019-05-10T17:11:59.033Z,100263.91
2019-05-10T17:14:23.342Z,100264.31
2019-05-10T17:16:49.621Z,100262.95
2019-05-10T17:19:14.083Z,100268.49
2019-05-10T17:21:38.620Z,100254.58
2019-05-10T17:24:03.143Z,100265.23
2019-05-10T17:26:27.604Z,100268.09
2019-05-10T17:28:52.065Z,100264.83
2019-05-10T17:31:16.634Z,100274.08
2019-05-10T17:33:42.828Z,100278.92
2019-05-10T17:36:08.866Z,100280.95
2019-05-10T17:38:33.615Z,100279.69
2019-05-10T17:40:58.379Z,100279.12
2019-05-10T17:43:22.954Z,100281.90
2019-05-10T17:45:47.365Z,100238.94
2019-05-10T17:48:11.806Z,100290.50
2019-05-10T17:50:36.256Z,100290.68
2019-05-10T17:53:00.744Z,100289.80
2019-05-10T17:55:25.680Z,100287.93
2019-05-10T17:57:54.532Z,100291.20
2019-05-10T18:00:17.027Z,100296.62
2019-05-10T18:02:41.497Z,100297.52
2019-05-10T18:05:08.266Z,100297.74
2019-05-10T18:07:32.936Z,100301.23
2019-05-10T18:09:57.453Z,100298.64
2019-05-10T18:12:26.685Z,100296.27
2019-05-10T18:14:50.195Z,100290.99
2019-05-10T18:17:14.402Z,100298.59
2019-05-10T18:19:39.015Z,100294.38
2019-05-10T18:22:06.440Z,100301.33
2019-05-10T18:24:35.104Z,100300.73
2019-05-10T18:26:56.082Z,100308.31
2019-05-10T18:29:20.524Z,100312.35
2019-05-10T18:31:54.679Z,100311.60
2019-05-10T18:34:11.239Z,100310.11
2019-05-10T18:36:50.983Z,100311.72
2019-05-10T18:39:01.937Z,100313.37
2019-05-10T18:41:26.550Z,100317.28
2019-05-10T18:43:51.126Z,100319.80
2019-05-10T18:46:15.584Z,100316.38
2019-05-10T18:48:40.061Z,100316.54
2019-05-10T18:51:04.662Z,100322.78
2019-05-10T18:53:29.185Z,100324.05
2019-05-10T18:55:53.624Z,100320.62
2019-05-10T18:58:23.310Z,100333.06
2019-05-10T19:00:44.244Z,100325.61
2019-05-10T19:03:08.815Z,100329.33
2019-05-10T19:05:33.305Z,100326.41
2019-05-10T19:08:05.069Z,100329.02
2019-05-10T19:10:24.057Z,100326.08
2019-05-10T19:12:59.779Z,100327.95
2019-05-10T19:15:15.643Z,100336.19
2019-05-10T19:17:45.642Z,100341.02
2019-05-10T19:20:09.521Z,100342.24
2019-05-10T19:22:33.665Z,100348.15
2019-05-10T19:25:10.849Z,100344.27
2019-05-10T19:27:25.186Z,100345.97
2019-05-10T19:29:49.830Z,100347.05
2019-05-10T19:32:18.169Z,100350.00
2019-05-10T19:34:40.540Z,100354.95
2019-05-10T19:37:04.991Z,100350.45
2019-05-10T19:39:29.456Z,100356.04
2019-05-10T19:42:03.065Z,100361.01
2019-05-10T19:44:20.097Z,100357.44
2019-05-10T19:46:44.529Z,100350.28
2019-05-10T19:49:13.409Z,100355.55
2019-05-10T19:51:35.380Z,100355.08
2019-05-10T19:53:59.884Z,100354.16
2019-05-10T19:56:24.343Z,100353.03
2019-05-10T19:58:49.484Z,100360.34
2019-05-10T20:01:14.006Z,100360.47
2019-05-10T20:03:38.636Z,100357.69
2019-05-10T20:06:03.074Z,100364.47
2019-05-10T20:08:27.597Z,100370.44
2019-05-10T20:10:52.113Z,100375.20
2019-05-10T20:13:16.551Z,100376.72
2019-05-10T20:15:41.008Z,100376.91
2019-05-10T20:18:05.771Z,100376.00
2019-05-10T20:20:30.354Z,100375.98
2019-05-10T20:22:54.777Z,100378.11
2019-05-10T20:25:19.329Z,100373.58
2019-05-10T20:27:43.788Z,100379.95
2019-05-10T20:30:09.191Z,100385.78
2019-05-10T20:32:33.650Z,100384.88
2019-05-10T20:34:58.212Z,100394.26
2019-05-10T20:37:22.669Z,100386.12
2019-05-10T20:39:47.300Z,100386.61
2019-05-10T20:42:11.966Z,100383.99
2019-05-10T20:44:36.488Z,100384.33
2019-05-10T20:47:00.935Z,100379.49
2019-05-10T20:49:25.469Z,100380.03
2019-05-10T20:51:50.016Z,100385.84
2019-05-10T20:54:14.547Z,100385.94
2019-05-10T20:56:39.018Z,100385.87
2019-05-10T20:59:03.612Z,100392.00
2019-05-10T21:01:28.105Z,100386.31
2019-05-10T21:03:52.633Z,100378.85
2019-05-10T21:06:17.127Z,100384.55
2019-05-10T21:08:41.587Z,100388.42
2019-05-10T21:11:06.208Z,100384.83
2019-05-10T21:13:30.693Z,100394.12
2019-05-10T21:15:55.164Z,100391.00
2019-05-10T21:18:19.618Z,100394.45
2019-05-10T21:20:44.089Z,100401.25
2019-05-10T21:23:08.691Z,100404.44
2019-05-10T21:25:33.174Z,100401.95
2019-05-10T21:27:57.619Z,100412.66
2019-05-10T21:30:22.244Z,100414.71
2019-05-10T21:32:46.704Z,100424.96
2019-05-10T21:35:11.333Z,100428.91
2019-05-10T21:37:35.870Z,100432.64
2019-05-10T21:40:00.454Z,100443.59
2019-05-10T21:42:24.977Z,100441.88
2019-05-10T21:44:49.504Z,100442.38
2019-05-10T21:47:14.172Z,100446.10
2019-05-10T21:49:38.756Z,100444.66
2019-05-10T21:52:03.305Z,100442.66
2019-05-10T21:54:27.746Z,100446.28
2019-05-10T21:56:52.221Z,100444.55
2019-05-10T21:59:16.668Z,100447.48
2019-05-10T22:01:41.210Z,100444.05
2019-05-10T22:04:05.720Z,100436.72
2019-05-10T22:06:30.271Z,100437.09
2019-05-10T22:08:54.796Z,100438.98
2019-05-10T22:11:19.899Z,100446.27
2019-05-10T22:13:44.365Z,100443.57
2019-05-10T22:16:08.890Z,100443.94
2019-05-10T22:18:33.690Z,100396.14
2019-05-10T22:20:58.227Z,100441.42
2019-05-10T22:23:22.662Z,100442.69
2019-05-10T22:25:47.143Z,100437.68
2019-05-10T22:28:11.677Z,100447.41
2019-05-10T22:30:36.190Z,100446.86
2019-05-10T22:33:00.716Z,100435.30
2019-05-10T22:35:25.341Z,100429.74
2019-05-10T22:37:49.883Z,100433.02
2019-05-10T22:40:14.460Z,100437.48
2019-05-10T22:42:39.117Z,100427.92
2019-05-10T22:45:04.043Z,100434.24
2019-05-10T22:47:28.472Z,100443.33
2019-05-10T22:49:52.919Z,100452.33
2019-05-10T22:52:17.489Z,100452.22
2019-05-10T22:54:42.003Z,100448.41
2019-05-10T22:57:06.496Z,100451.67
2019-05-10T22:59:30.983Z,100461.52
2019-05-10T23:01:55.537Z,100463.42
2019-05-10T23:04:20.253Z,100455.00
2019-05-10T23:06:44.893Z,100398.79
2019-05-10T23:09:23.402Z,100442.41
2019-05-10T23:11:35.564Z,100427.22
2019-05-10T23:14:00.040Z,100427.41
2019-05-10T23:16:24.621Z,100433.52
2019-05-10T23:18:49.076Z,100434.51
2019-05-10T23:21:13.561Z,100429.12
2019-05-10T23:23:38.007Z,100421.41
2019-05-10T23:26:02.458Z,100419.34
2019-05-10T23:28:26.936Z,100419.81
2019-05-10T23:30:52.973Z,100430.97
2019-05-10T23:33:18.402Z,100433.95
2019-05-10T23:35:43.216Z,100426.98
2019-05-10T23:38:07.724Z,100433.41
2019-05-10T23:40:32.160Z,100437.41
2019-05-10T23:42:56.654Z,100441.49
2019-05-10T23:45:21.157Z,100439.08
2019-05-10T23:47:45.643Z,100435.76
2019-05-10T23:50:10.223Z,100441.72
2019-05-10T23:52:34.697Z,100430.58
2019-05-10T23:54:59.216Z,100435.41
2019-05-10T23:57:23.736Z,100432.98
2019-05-10T23:59:48.252Z,100431.05
